sensor_id;sensor_type;location;lat;lon;timestamp;P1;durP1;ratioP1;P2;durP2;ratioP2
31514;SDS011;40526;52.088;17.020;2023-04-30T00:02:48;20.88;;;12.48;;
31514;SDS011;40526;52.088;17.020;2023-04-30T00:07:50;25.85;;;13.30;;
31514;SDS011;40526;52.088;17.020;2023-04-30T00:12:53;20.30;;;12.75;;
31514;SDS011;40526;52.088;17.020;2023-04-30T00:17:57;19.00;;;12.80;;
31514;SDS011;40526;52.088;17.020;2023-04-30T00:23:00;18.85;;;11.25;;
31514;SDS011;40526;52.088;17.020;2023-04-30T00:28:02;18.45;;;12.20;;
31514;SDS011;40526;52.088;17.020;2023-04-30T00:33:06;20.50;;;12.90;;
31514;SDS011;40526;52.088;17.020;2023-04-30T00:38:09;16.00;;;10.75;;
31514;SDS011;40526;52.088;17.020;2023-04-30T00:43:12;18.50;;;11.55;;
31514;SDS011;40526;52.088;17.020;2023-04-30T00:48:15;22.75;;;12.40;;
31514;SDS011;40526;52.088;17.020;2023-04-30T00:53:18;16.98;;;11.93;;
31514;SDS011;40526;52.088;17.020;2023-04-30T00:58:21;20.70;;;12.57;;
31514;SDS011;40526;52.088;17.020;2023-04-30T01:03:25;24.00;;;12.90;;
31514;SDS011;40526;52.088;17.020;2023-04-30T01:08:29;21.38;;;12.93;;
31514;SDS011;40526;52.088;17.020;2023-04-30T01:13:33;24.02;;;13.40;;
31514;SDS011;40526;52.088;17.020;2023-04-30T01:18:42;20.77;;;13.18;;
31514;SDS011;40526;52.088;17.020;2023-04-30T01:29:21;23.65;;;14.32;;
31514;SDS011;40526;52.088;17.020;2023-04-30T01:34:25;19.38;;;13.55;;
31514;SDS011;40526;52.088;17.020;2023-04-30T01:39:31;20.48;;;13.68;;
31514;SDS011;40526;52.088;17.020;2023-04-30T01:44:52;16.90;;;11.52;;
31514;SDS011;40526;52.088;17.020;2023-04-30T01:50:06;17.98;;;12.00;;
31514;SDS011;40526;52.088;17.020;2023-04-30T01:55:17;19.00;;;11.90;;
31514;SDS011;40526;52.088;17.020;2023-04-30T02:00:26;17.13;;;10.95;;
31514;SDS011;40526;52.088;17.020;2023-04-30T02:05:29;15.73;;;10.48;;
31514;SDS011;40526;52.088;17.020;2023-04-30T02:10:31;15.10;;;9.93;;
31514;SDS011;40526;52.088;17.020;2023-04-30T02:15:35;17.95;;;11.50;;
31514;SDS011;40526;52.088;17.020;2023-04-30T02:20:38;16.17;;;10.70;;
31514;SDS011;40526;52.088;17.020;2023-04-30T02:25:40;14.25;;;9.27;;
31514;SDS011;40526;52.088;17.020;2023-04-30T02:30:44;16.55;;;10.57;;
31514;SDS011;40526;52.088;17.020;2023-04-30T02:35:46;20.33;;;10.07;;
31514;SDS011;40526;52.088;17.020;2023-04-30T02:40:49;13.10;;;9.52;;
31514;SDS011;40526;52.088;17.020;2023-04-30T02:45:53;16.63;;;9.77;;
31514;SDS011;40526;52.088;17.020;2023-04-30T02:50:56;14.05;;;9.70;;
31514;SDS011;40526;52.088;17.020;2023-04-30T02:55:58;14.85;;;9.57;;
31514;SDS011;40526;52.088;17.020;2023-04-30T03:01:02;17.05;;;10.30;;
31514;SDS011;40526;52.088;17.020;2023-04-30T03:06:05;15.27;;;9.48;;
31514;SDS011;40526;52.088;17.020;2023-04-30T03:11:07;14.57;;;9.20;;
31514;SDS011;40526;52.088;17.020;2023-04-30T03:16:11;16.52;;;9.82;;
31514;SDS011;40526;52.088;17.020;2023-04-30T03:21:13;14.38;;;9.80;;
31514;SDS011;40526;52.088;17.020;2023-04-30T03:26:16;14.75;;;9.60;;
31514;SDS011;40526;52.088;17.020;2023-04-30T03:31:20;14.00;;;9.20;;
31514;SDS011;40526;52.088;17.020;2023-04-30T03:36:23;15.25;;;9.48;;
31514;SDS011;40526;52.088;17.020;2023-04-30T03:41:26;12.88;;;8.75;;
31514;SDS011;40526;52.088;17.020;2023-04-30T03:46:30;17.15;;;9.10;;
31514;SDS011;40526;52.088;17.020;2023-04-30T03:51:33;12.18;;;8.10;;
31514;SDS011;40526;52.088;17.020;2023-04-30T03:56:38;15.20;;;8.98;;
31514;SDS011;40526;52.088;17.020;2023-04-30T04:01:42;20.40;;;9.02;;
31514;SDS011;40526;52.088;17.020;2023-04-30T04:06:45;14.45;;;7.93;;
31514;SDS011;40526;52.088;17.020;2023-04-30T04:11:48;16.63;;;8.57;;
31514;SDS011;40526;52.088;17.020;2023-04-30T04:16:51;10.80;;;7.95;;
31514;SDS011;40526;52.088;17.020;2023-04-30T04:21:54;10.45;;;6.88;;
31514;SDS011;40526;52.088;17.020;2023-04-30T04:26:56;8.63;;;5.97;;
31514;SDS011;40526;52.088;17.020;2023-04-30T04:32:00;8.60;;;4.95;;
31514;SDS011;40526;52.088;17.020;2023-04-30T04:37:06;8.57;;;5.10;;
31514;SDS011;40526;52.088;17.020;2023-04-30T04:42:09;9.18;;;5.60;;
31514;SDS011;40526;52.088;17.020;2023-04-30T04:47:14;8.10;;;5.18;;
31514;SDS011;40526;52.088;17.020;2023-04-30T04:52:19;6.10;;;5.07;;
31514;SDS011;40526;52.088;17.020;2023-04-30T04:57:21;8.52;;;5.85;;
31514;SDS011;40526;52.088;17.020;2023-04-30T05:02:25;6.65;;;4.90;;
31514;SDS011;40526;52.088;17.020;2023-04-30T05:07:29;12.38;;;5.13;;
31514;SDS011;40526;52.088;17.020;2023-04-30T05:12:32;7.25;;;5.07;;
31514;SDS011;40526;52.088;17.020;2023-04-30T05:17:35;8.73;;;4.95;;
31514;SDS011;40526;52.088;17.020;2023-04-30T05:22:38;8.70;;;4.43;;
31514;SDS011;40526;52.088;17.020;2023-04-30T05:27:40;7.47;;;4.18;;
31514;SDS011;40526;52.088;17.020;2023-04-30T05:32:43;7.60;;;4.75;;
31514;SDS011;40526;52.088;17.020;2023-04-30T05:37:49;4.97;;;3.80;;
31514;SDS011;40526;52.088;17.020;2023-04-30T05:42:52;7.00;;;3.10;;
31514;SDS011;40526;52.088;17.020;2023-04-30T05:47:55;6.57;;;3.80;;
31514;SDS011;40526;52.088;17.020;2023-04-30T05:52:58;4.57;;;3.00;;
31514;SDS011;40526;52.088;17.020;2023-04-30T05:58:00;6.60;;;2.78;;
31514;SDS011;40526;52.088;17.020;2023-04-30T06:03:04;5.78;;;3.22;;
31514;SDS011;40526;52.088;17.020;2023-04-30T06:08:06;4.60;;;2.78;;
31514;SDS011;40526;52.088;17.020;2023-04-30T06:13:09;3.35;;;2.35;;
31514;SDS011;40526;52.088;17.020;2023-04-30T06:18:12;5.57;;;2.55;;
31514;SDS011;40526;52.088;17.020;2023-04-30T06:23:15;2.92;;;2.40;;
31514;SDS011;40526;52.088;17.020;2023-04-30T06:28:17;3.75;;;2.20;;
31514;SDS011;40526;52.088;17.020;2023-04-30T06:33:21;3.45;;;2.63;;
31514;SDS011;40526;52.088;17.020;2023-04-30T06:38:23;5.00;;;2.80;;
31514;SDS011;40526;52.088;17.020;2023-04-30T06:43:26;6.93;;;3.58;;
31514;SDS011;40526;52.088;17.020;2023-04-30T06:48:29;3.85;;;2.10;;
31514;SDS011;40526;52.088;17.020;2023-04-30T06:53:31;3.50;;;1.80;;
31514;SDS011;40526;52.088;17.020;2023-04-30T06:58:33;6.97;;;2.40;;
31514;SDS011;40526;52.088;17.020;2023-04-30T07:03:38;5.65;;;2.90;;
31514;SDS011;40526;52.088;17.020;2023-04-30T07:08:40;6.47;;;2.67;;
31514;SDS011;40526;52.088;17.020;2023-04-30T07:13:43;5.38;;;2.15;;
31514;SDS011;40526;52.088;17.020;2023-04-30T07:18:47;6.38;;;2.70;;
31514;SDS011;40526;52.088;17.020;2023-04-30T07:23:49;6.75;;;2.75;;
31514;SDS011;40526;52.088;17.020;2023-04-30T07:28:52;5.65;;;2.13;;
31514;SDS011;40526;52.088;17.020;2023-04-30T07:33:55;4.97;;;1.90;;
31514;SDS011;40526;52.088;17.020;2023-04-30T07:38:58;4.13;;;1.85;;
31514;SDS011;40526;52.088;17.020;2023-04-30T07:44:00;6.15;;;2.08;;
31514;SDS011;40526;52.088;17.020;2023-04-30T07:49:04;5.45;;;1.95;;
31514;SDS011;40526;52.088;17.020;2023-04-30T07:54:06;8.93;;;1.92;;
31514;SDS011;40526;52.088;17.020;2023-04-30T07:59:08;9.05;;;2.90;;
31514;SDS011;40526;52.088;17.020;2023-04-30T08:04:12;4.35;;;2.00;;
31514;SDS011;40526;52.088;17.020;2023-04-30T08:09:14;8.30;;;2.72;;
31514;SDS011;40526;52.088;17.020;2023-04-30T08:14:16;4.35;;;1.88;;
31514;SDS011;40526;52.088;17.020;2023-04-30T08:19:20;3.25;;;1.92;;
31514;SDS011;40526;52.088;17.020;2023-04-30T08:24:23;2.80;;;2.15;;
31514;SDS011;40526;52.088;17.020;2023-04-30T08:29:25;3.67;;;2.42;;
31514;SDS011;40526;52.088;17.020;2023-04-30T08:34:29;3.65;;;2.10;;
31514;SDS011;40526;52.088;17.020;2023-04-30T08:39:32;5.47;;;2.00;;
31514;SDS011;40526;52.088;17.020;2023-04-30T08:44:34;3.35;;;1.80;;
31514;SDS011;40526;52.088;17.020;2023-04-30T08:49:40;2.85;;;1.83;;
31514;SDS011;40526;52.088;17.020;2023-04-30T08:54:43;2.78;;;1.95;;
31514;SDS011;40526;52.088;17.020;2023-04-30T08:59:45;4.93;;;2.65;;
31514;SDS011;40526;52.088;17.020;2023-04-30T09:04:50;4.78;;;2.03;;
31514;SDS011;40526;52.088;17.020;2023-04-30T09:09:52;4.32;;;2.28;;
31514;SDS011;40526;52.088;17.020;2023-04-30T09:14:58;4.63;;;2.42;;
31514;SDS011;40526;52.088;17.020;2023-04-30T09:20:11;4.68;;;2.30;;
31514;SDS011;40526;52.088;17.020;2023-04-30T09:25:14;5.45;;;2.25;;
31514;SDS011;40526;52.088;17.020;2023-04-30T09:30:29;5.55;;;1.98;;
31514;SDS011;40526;52.088;17.020;2023-04-30T09:35:34;5.15;;;1.90;;
31514;SDS011;40526;52.088;17.020;2023-04-30T09:40:38;5.03;;;1.67;;
31514;SDS011;40526;52.088;17.020;2023-04-30T09:45:42;7.25;;;1.88;;
31514;SDS011;40526;52.088;17.020;2023-04-30T09:50:48;3.03;;;1.90;;
31514;SDS011;40526;52.088;17.020;2023-04-30T09:55:51;7.00;;;1.85;;
31514;SDS011;40526;52.088;17.020;2023-04-30T10:00:53;3.63;;;1.95;;
31514;SDS011;40526;52.088;17.020;2023-04-30T10:05:58;4.07;;;1.90;;
31514;SDS011;40526;52.088;17.020;2023-04-30T10:11:01;3.30;;;2.00;;
31514;SDS011;40526;52.088;17.020;2023-04-30T10:16:06;4.07;;;1.88;;
31514;SDS011;40526;52.088;17.020;2023-04-30T10:21:14;6.07;;;2.38;;
31514;SDS011;40526;52.088;17.020;2023-04-30T10:26:18;6.70;;;1.83;;
31514;SDS011;40526;52.088;17.020;2023-04-30T10:31:20;4.13;;;2.03;;
31514;SDS011;40526;52.088;17.020;2023-04-30T10:36:27;2.45;;;1.63;;
31514;SDS011;40526;52.088;17.020;2023-04-30T10:41:31;3.47;;;2.10;;
31514;SDS011;40526;52.088;17.020;2023-04-30T10:46:34;2.65;;;1.92;;
31514;SDS011;40526;52.088;17.020;2023-04-30T10:51:44;3.47;;;1.67;;
31514;SDS011;40526;52.088;17.020;2023-04-30T10:56:49;5.13;;;2.07;;
31514;SDS011;40526;52.088;17.020;2023-04-30T11:01:55;6.60;;;2.40;;
31514;SDS011;40526;52.088;17.020;2023-04-30T11:07:08;3.50;;;1.80;;
31514;SDS011;40526;52.088;17.020;2023-04-30T11:17:20;4.20;;;2.17;;
31514;SDS011;40526;52.088;17.020;2023-04-30T11:22:25;2.38;;;1.63;;
31514;SDS011;40526;52.088;17.020;2023-04-30T11:27:29;3.08;;;1.65;;
31514;SDS011;40526;52.088;17.020;2023-04-30T11:32:33;4.63;;;1.83;;
31514;SDS011;40526;52.088;17.020;2023-04-30T11:37:38;4.03;;;1.65;;
31514;SDS011;40526;52.088;17.020;2023-04-30T11:42:42;3.35;;;2.30;;
31514;SDS011;40526;52.088;17.020;2023-04-30T11:47:47;1.85;;;1.67;;
31514;SDS011;40526;52.088;17.020;2023-04-30T11:52:51;2.88;;;2.30;;
31514;SDS011;40526;52.088;17.020;2023-04-30T11:57:55;2.75;;;1.92;;
31514;SDS011;40526;52.088;17.020;2023-04-30T12:02:59;3.33;;;1.80;;
31514;SDS011;40526;52.088;17.020;2023-04-30T12:08:04;5.78;;;2.20;;
31514;SDS011;40526;52.088;17.020;2023-04-30T12:13:08;2.42;;;1.52;;
31514;SDS011;40526;52.088;17.020;2023-04-30T12:18:15;4.85;;;2.10;;
31514;SDS011;40526;52.088;17.020;2023-04-30T12:23:19;5.07;;;2.30;;
31514;SDS011;40526;52.088;17.020;2023-04-30T12:28:22;2.78;;;1.83;;
31514;SDS011;40526;52.088;17.020;2023-04-30T12:33:24;8.88;;;2.00;;
31514;SDS011;40526;52.088;17.020;2023-04-30T12:38:32;2.13;;;1.60;;
31514;SDS011;40526;52.088;17.020;2023-04-30T12:43:35;4.38;;;2.60;;
31514;SDS011;40526;52.088;17.020;2023-04-30T12:48:42;2.63;;;2.10;;
31514;SDS011;40526;52.088;17.020;2023-04-30T12:53:46;3.83;;;2.38;;
31514;SDS011;40526;52.088;17.020;2023-04-30T12:58:48;2.53;;;2.15;;
31514;SDS011;40526;52.088;17.020;2023-04-30T13:03:51;3.47;;;2.03;;
31514;SDS011;40526;52.088;17.020;2023-04-30T13:08:55;3.10;;;1.70;;
31514;SDS011;40526;52.088;17.020;2023-04-30T13:14:01;3.17;;;1.90;;
31514;SDS011;40526;52.088;17.020;2023-04-30T13:19:03;2.42;;;2.13;;
31514;SDS011;40526;52.088;17.020;2023-04-30T13:24:07;2.28;;;1.83;;
31514;SDS011;40526;52.088;17.020;2023-04-30T13:29:09;4.55;;;1.83;;
31514;SDS011;40526;52.088;17.020;2023-04-30T13:34:12;2.17;;;1.45;;
31514;SDS011;40526;52.088;17.020;2023-04-30T13:39:16;3.20;;;1.60;;
31514;SDS011;40526;52.088;17.020;2023-04-30T13:44:19;2.50;;;1.48;;
31514;SDS011;40526;52.088;17.020;2023-04-30T13:49:21;3.72;;;1.80;;
31514;SDS011;40526;52.088;17.020;2023-04-30T13:54:25;3.15;;;1.80;;
31514;SDS011;40526;52.088;17.020;2023-04-30T13:59:27;5.75;;;2.10;;
31514;SDS011;40526;52.088;17.020;2023-04-30T14:04:32;2.72;;;1.90;;
31514;SDS011;40526;52.088;17.020;2023-04-30T14:09:36;3.05;;;1.88;;
31514;SDS011;40526;52.088;17.020;2023-04-30T14:14:38;5.03;;;1.90;;
31514;SDS011;40526;52.088;17.020;2023-04-30T14:19:41;4.28;;;1.67;;
31514;SDS011;40526;52.088;17.020;2023-04-30T14:24:44;2.70;;;1.38;;
31514;SDS011;40526;52.088;17.020;2023-04-30T14:29:47;4.72;;;1.75;;
31514;SDS011;40526;52.088;17.020;2023-04-30T14:34:49;1.88;;;1.38;;
31514;SDS011;40526;52.088;17.020;2023-04-30T14:39:53;2.47;;;1.65;;
31514;SDS011;40526;52.088;17.020;2023-04-30T14:44:56;3.72;;;1.77;;
31514;SDS011;40526;52.088;17.020;2023-04-30T14:49:58;4.97;;;1.38;;
31514;SDS011;40526;52.088;17.020;2023-04-30T14:55:03;1.75;;;1.40;;
31514;SDS011;40526;52.088;17.020;2023-04-30T15:00:06;2.05;;;1.20;;
31514;SDS011;40526;52.088;17.020;2023-04-30T15:05:09;2.30;;;1.50;;
31514;SDS011;40526;52.088;17.020;2023-04-30T15:10:13;2.65;;;1.65;;
31514;SDS011;40526;52.088;17.020;2023-04-30T15:15:15;2.53;;;1.27;;
31514;SDS011;40526;52.088;17.020;2023-04-30T15:20:18;2.08;;;1.40;;
31514;SDS011;40526;52.088;17.020;2023-04-30T15:25:22;3.65;;;1.65;;
31514;SDS011;40526;52.088;17.020;2023-04-30T15:30:24;3.00;;;1.42;;
31514;SDS011;40526;52.088;17.020;2023-04-30T15:35:26;2.33;;;1.08;;
31514;SDS011;40526;52.088;17.020;2023-04-30T15:40:30;2.58;;;1.42;;
31514;SDS011;40526;52.088;17.020;2023-04-30T15:45:32;2.35;;;1.40;;
31514;SDS011;40526;52.088;17.020;2023-04-30T15:50:35;4.82;;;1.70;;
31514;SDS011;40526;52.088;17.020;2023-04-30T15:55:38;2.78;;;1.50;;
31514;SDS011;40526;52.088;17.020;2023-04-30T16:00:41;1.42;;;1.15;;
31514;SDS011;40526;52.088;17.020;2023-04-30T16:05:44;3.05;;;1.98;;
31514;SDS011;40526;52.088;17.020;2023-04-30T16:10:48;2.42;;;1.25;;
31514;SDS011;40526;52.088;17.020;2023-04-30T16:15:50;1.35;;;0.95;;
31514;SDS011;40526;52.088;17.020;2023-04-30T16:20:52;3.90;;;1.85;;
31514;SDS011;40526;52.088;17.020;2023-04-30T16:25:56;4.65;;;1.70;;
31514;SDS011;40526;52.088;17.020;2023-04-30T16:30:58;3.35;;;2.00;;
31514;SDS011;40526;52.088;17.020;2023-04-30T16:36:00;2.33;;;1.55;;
31514;SDS011;40526;52.088;17.020;2023-04-30T16:41:04;2.78;;;1.60;;
31514;SDS011;40526;52.088;17.020;2023-04-30T16:46:06;3.40;;;2.40;;
31514;SDS011;40526;52.088;17.020;2023-04-30T16:51:09;7.47;;;3.13;;
31514;SDS011;40526;52.088;17.020;2023-04-30T16:56:14;5.03;;;2.63;;
31514;SDS011;40526;52.088;17.020;2023-04-30T17:01:16;2.75;;;1.75;;
31514;SDS011;40526;52.088;17.020;2023-04-30T17:06:19;9.52;;;2.70;;
31514;SDS011;40526;52.088;17.020;2023-04-30T17:11:23;5.38;;;2.47;;
31514;SDS011;40526;52.088;17.020;2023-04-30T17:16:25;3.63;;;2.63;;
31514;SDS011;40526;52.088;17.020;2023-04-30T17:21:27;4.20;;;2.30;;
31514;SDS011;40526;52.088;17.020;2023-04-30T17:26:31;3.75;;;2.35;;
31514;SDS011;40526;52.088;17.020;2023-04-30T17:31:34;4.47;;;2.53;;
31514;SDS011;40526;52.088;17.020;2023-04-30T17:36:36;9.07;;;4.00;;
31514;SDS011;40526;52.088;17.020;2023-04-30T17:41:40;7.55;;;3.25;;
31514;SDS011;40526;52.088;17.020;2023-04-30T17:46:42;6.05;;;3.58;;
31514;SDS011;40526;52.088;17.020;2023-04-30T17:51:45;6.25;;;3.08;;
31514;SDS011;40526;52.088;17.020;2023-04-30T17:56:48;6.70;;;4.10;;
31514;SDS011;40526;52.088;17.020;2023-04-30T18:01:51;7.88;;;4.57;;
31514;SDS011;40526;52.088;17.020;2023-04-30T18:06:53;10.25;;;4.70;;
31514;SDS011;40526;52.088;17.020;2023-04-30T18:11:57;10.25;;;5.00;;
31514;SDS011;40526;52.088;17.020;2023-04-30T18:17:00;10.38;;;5.47;;
31514;SDS011;40526;52.088;17.020;2023-04-30T18:22:02;14.35;;;7.35;;
31514;SDS011;40526;52.088;17.020;2023-04-30T18:27:06;12.98;;;5.50;;
31514;SDS011;40526;52.088;17.020;2023-04-30T18:32:09;12.38;;;5.85;;
31514;SDS011;40526;52.088;17.020;2023-04-30T18:37:12;9.73;;;4.60;;
31514;SDS011;40526;52.088;17.020;2023-04-30T18:42:18;9.93;;;6.15;;
31514;SDS011;40526;52.088;17.020;2023-04-30T18:47:20;11.70;;;6.68;;
31514;SDS011;40526;52.088;17.020;2023-04-30T18:52:23;17.33;;;8.13;;
31514;SDS011;40526;52.088;17.020;2023-04-30T18:57:26;13.63;;;6.60;;
31514;SDS011;40526;52.088;17.020;2023-04-30T19:02:29;16.80;;;8.23;;
31514;SDS011;40526;52.088;17.020;2023-04-30T19:07:32;12.50;;;6.32;;
31514;SDS011;40526;52.088;17.020;2023-04-30T19:12:36;9.50;;;5.70;;
31514;SDS011;40526;52.088;17.020;2023-04-30T19:17:38;14.13;;;5.65;;
31514;SDS011;40526;52.088;17.020;2023-04-30T19:22:41;17.30;;;6.47;;
31514;SDS011;40526;52.088;17.020;2023-04-30T19:32:47;7.65;;;3.40;;
31514;SDS011;40526;52.088;17.020;2023-04-30T19:37:49;6.90;;;3.78;;
31514;SDS011;40526;52.088;17.020;2023-04-30T19:42:53;6.88;;;4.35;;
31514;SDS011;40526;52.088;17.020;2023-04-30T19:47:55;6.28;;;4.35;;
31514;SDS011;40526;52.088;17.020;2023-04-30T19:52:58;8.02;;;3.90;;
31514;SDS011;40526;52.088;17.020;2023-04-30T19:58:02;7.18;;;4.10;;
31514;SDS011;40526;52.088;17.020;2023-04-30T20:03:04;7.05;;;3.83;;
31514;SDS011;40526;52.088;17.020;2023-04-30T20:08:07;8.07;;;3.90;;
31514;SDS011;40526;52.088;17.020;2023-04-30T20:13:11;7.00;;;4.18;;
31514;SDS011;40526;52.088;17.020;2023-04-30T20:18:13;6.75;;;4.18;;
31514;SDS011;40526;52.088;17.020;2023-04-30T20:23:16;10.95;;;5.63;;
31514;SDS011;40526;52.088;17.020;2023-04-30T20:28:20;9.07;;;4.50;;
31514;SDS011;40526;52.088;17.020;2023-04-30T20:33:23;8.10;;;4.50;;
31514;SDS011;40526;52.088;17.020;2023-04-30T20:38:28;5.50;;;3.92;;
31514;SDS011;40526;52.088;17.020;2023-04-30T20:43:31;6.43;;;4.03;;
31514;SDS011;40526;52.088;17.020;2023-04-30T20:48:34;7.53;;;4.43;;
31514;SDS011;40526;52.088;17.020;2023-04-30T20:53:36;6.53;;;3.88;;
31514;SDS011;40526;52.088;17.020;2023-04-30T20:58:40;7.00;;;4.18;;
31514;SDS011;40526;52.088;17.020;2023-04-30T21:03:43;5.28;;;4.05;;
31514;SDS011;40526;52.088;17.020;2023-04-30T21:08:45;11.35;;;5.25;;
31514;SDS011;40526;52.088;17.020;2023-04-30T21:13:49;7.60;;;4.50;;
31514;SDS011;40526;52.088;17.020;2023-04-30T21:18:52;6.15;;;4.10;;
31514;SDS011;40526;52.088;17.020;2023-04-30T21:23:54;6.70;;;3.97;;
31514;SDS011;40526;52.088;17.020;2023-04-30T21:29:01;7.43;;;4.80;;
31514;SDS011;40526;52.088;17.020;2023-04-30T21:34:03;7.97;;;5.30;;
31514;SDS011;40526;52.088;17.020;2023-04-30T21:39:06;8.90;;;5.38;;
31514;SDS011;40526;52.088;17.020;2023-04-30T21:44:10;8.35;;;5.30;;
31514;SDS011;40526;52.088;17.020;2023-04-30T21:49:13;10.88;;;5.55;;
31514;SDS011;40526;52.088;17.020;2023-04-30T21:54:16;12.27;;;5.80;;
31514;SDS011;40526;52.088;17.020;2023-04-30T21:59:20;13.80;;;5.47;;
31514;SDS011;40526;52.088;17.020;2023-04-30T22:04:22;15.88;;;6.22;;
31514;SDS011;40526;52.088;17.020;2023-04-30T22:09:25;12.32;;;6.43;;
31514;SDS011;40526;52.088;17.020;2023-04-30T22:14:29;13.32;;;5.78;;
31514;SDS011;40526;52.088;17.020;2023-04-30T22:19:31;10.52;;;6.05;;
31514;SDS011;40526;52.088;17.020;2023-04-30T22:24:34;8.40;;;5.45;;
31514;SDS011;40526;52.088;17.020;2023-04-30T22:34:40;9.60;;;5.97;;
31514;SDS011;40526;52.088;17.020;2023-04-30T22:39:42;10.43;;;6.82;;
31514;SDS011;40526;52.088;17.020;2023-04-30T22:44:46;13.48;;;7.03;;
31514;SDS011;40526;52.088;17.020;2023-04-30T22:49:49;13.43;;;6.97;;
31514;SDS011;40526;52.088;17.020;2023-04-30T22:54:52;10.65;;;6.07;;
31514;SDS011;40526;52.088;17.020;2023-04-30T22:59:54;16.08;;;7.22;;
31514;SDS011;40526;52.088;17.020;2023-04-30T23:04:58;11.70;;;7.13;;
31514;SDS011;40526;52.088;17.020;2023-04-30T23:10:00;11.32;;;6.32;;
31514;SDS011;40526;52.088;17.020;2023-04-30T23:15:04;16.17;;;6.68;;
31514;SDS011;40526;52.088;17.020;2023-04-30T23:20:08;12.25;;;6.03;;
31514;SDS011;40526;52.088;17.020;2023-04-30T23:25:11;10.55;;;6.88;;
31514;SDS011;40526;52.088;17.020;2023-04-30T23:30:13;11.77;;;7.63;;
31514;SDS011;40526;52.088;17.020;2023-04-30T23:35:17;15.50;;;7.82;;
31514;SDS011;40526;52.088;17.020;2023-04-30T23:40:20;14.02;;;7.25;;
31514;SDS011;40526;52.088;17.020;2023-04-30T23:45:22;13.80;;;7.70;;
31514;SDS011;40526;52.088;17.020;2023-04-30T23:50:28;14.15;;;7.13;;
31514;SDS011;40526;52.088;17.020;2023-04-30T23:55:30;11.40;;;7.13;;
